Krebs, Oklahoma
Current Conditions -  °F | °C
As of 7:53 AM on Monday 26 Jan 2015 (Local Time) from KMLC Reporting Station
Haze Haze  
Wind Chill: 22°   Ceiling: Unl
Heat Index: 27°   Visibility: 4mi
Dew Point: 25°   Wind: 5mph
Humidity: 92%   Direction: 210°SSW
Pressure: 30.18"   Gusts: NA
Location:  34.93°N, 95.72°W
Report Text: KMLC 261353Z AUTO 21004KT 4SM BR CLR M03/M04 A3018 RMK AO2 SLP222 I1000 T10281039
Loading
Personal Weather Stations






























Interactive Weather Map New forecast layout! Learn more

10-Day Weather Forecast

Advertisements
Track Severe Weather on mobile